Time;durP1;ratioP1;P1;durP2;ratioP2;P2;SDS_P1;SDS_P2;PMS_P1;PMS_P2;Temp;Humidity;BMP_temperature;BMP_pressure;BME280_temperature;BME280_humidity;BME280_pressure;Samples;Min_cycle;Max_cycle;Signal;HPM_P1;HPM_P2
2021/07/24 00:00:05;;;;;;;;;;;;;;;28.34;38.97;97028.63;5022768;28;1526;-51
2021/07/24 00:02:31;;;;;;;;;;;;;;;28.43;38.78;97024.22;5021439;28;1119;-51
2021/07/24 00:04:56;;;;;;;;;;;;;;;28.39;38.82;97025.53;5021126;28;1906;-52
2021/07/24 00:07:21;;;;;;;;;;;;;;;28.48;38.59;97016.66;5019748;28;1272;-51
2021/07/24 00:09:46;;;;;;;;;;;;;;;28.38;39.11;97023.88;5020674;28;1528;-52
2021/07/24 00:12:12;;;;;;;;;;;;;;;28.36;38.80;97026.69;5020327;28;1248;-52
2021/07/24 00:14:37;;;;;;;;;;;;;;;28.41;39.09;97034.16;5024110;28;1427;-51
2021/07/24 00:17:02;;;;;;;;;;;;;;;28.50;38.87;97027.13;5020277;28;1217;-52
2021/07/24 00:19:27;;;;;;;;;;;;;;;28.32;38.97;97019.16;5020593;28;1572;-52
2021/07/24 00:21:53;;;;;;;;;;;;;;;28.31;38.90;97017.50;5024681;28;1158;-52
2021/07/24 00:24:18;;;;;;;;;;;;;;;28.43;38.79;97032.19;5020110;28;1982;-52
2021/07/24 00:26:43;;;;;;;;;;;;;;;28.44;38.90;97033.03;5020359;28;1623;-51
2021/07/24 00:29:08;;;;;;;;;;;;;;;28.36;38.73;97023.19;5020507;28;1584;-52
2021/07/24 00:31:34;;;;;;;;;;;;;;;28.33;39.27;97021.66;5022249;28;1865;-51
2021/07/24 00:33:59;;;;;;;;;;;;;;;28.37;38.96;97019.56;5023486;28;1185;-51
2021/07/24 00:36:24;;;;;;;;;;;;;;;28.38;39.06;97015.91;5019261;28;1390;-52
2021/07/24 00:38:49;;;;;;;;;;;;;;;28.26;39.36;97017.06;5023169;28;1639;-51
2021/07/24 00:41:17;;;;;;;;;;;;;;;28.40;39.07;97003.31;5020418;28;1560;-51
2021/07/24 00:43:43;;;;;;;;;;;;;;;28.38;38.93;96994.69;5020498;28;1535;-52
2021/07/24 00:46:09;;;;;;;;;;;;;;;28.38;38.94;96997.34;5022674;28;1914;-50
2021/07/24 00:48:35;;;;;;;;;;;;;;;28.19;39.36;96994.81;5021303;28;1221;-52
2021/07/24 00:51:01;;;;;;;;;;;;;;;28.34;38.83;96985.38;5025626;28;1675;-51
2021/07/24 00:53:34;;;;;;;;;;;;;;;28.39;38.88;96988.41;5020891;28;1181;-53
2021/07/24 00:55:59;;;;;;;;;;;;;;;28.32;39.30;96985.53;5020212;28;1579;-50
2021/07/24 00:58:25;;;;;;;;;;;;;;;28.42;39.04;96981.94;5018507;28;1200;-52
2021/07/24 01:00:51;;;;;;;;;;;;;;;28.38;39.14;96972.66;5016709;28;1574;-52
2021/07/24 01:03:16;;;;;;;;;;;;;;;28.32;38.96;96971.44;5016630;28;1568;-52
2021/07/24 01:05:41;;;;;;;;;;;;;;;28.38;38.85;96976.13;5018668;28;1902;-52
2021/07/24 01:08:06;;;;;;;;;;;;;;;28.45;38.78;96966.59;5022004;28;1315;-52
2021/07/24 01:10:31;;;;;;;;;;;;;;;28.39;38.81;96969.84;5019900;28;1592;-51
2021/07/24 01:12:57;;;;;;;;;;;;;;;28.32;38.91;96959.00;5022762;28;1086;-52
2021/07/24 01:15:22;;;;;;;;;;;;;;;28.32;39.09;96958.16;5019247;28;1355;-51
2021/07/24 01:17:47;;;;;;;;;;;;;;;28.38;38.92;96964.69;5022697;28;1390;-52
2021/07/24 01:20:12;;;;;;;;;;;;;;;28.22;39.31;96966.19;5019912;28;1595;-50
2021/07/24 01:22:38;;;;;;;;;;;;;;;28.42;38.83;96968.69;5022983;28;1409;-51
2021/07/24 01:25:03;;;;;;;;;;;;;;;28.35;38.99;96961.34;5021473;28;1902;-51
2021/07/24 01:27:28;;;;;;;;;;;;;;;28.52;38.75;96966.81;5021595;28;1413;-52
2021/07/24 01:29:53;;;;;;;;;;;;;;;28.41;38.59;96959.06;5020385;28;1548;-52
2021/07/24 01:32:19;;;;;;;;;;;;;;;28.38;38.93;96954.91;5020156;28;1359;-51
2021/07/24 01:34:45;;;;;;;;;;;;;;;28.55;38.53;96961.19;5020275;28;1363;-50
2021/07/24 01:37:10;;;;;;;;;;;;;;;28.25;39.17;96965.03;5021502;28;1549;-53
2021/07/24 01:39:35;;;;;;;;;;;;;;;28.35;38.79;96952.56;5020231;28;1110;-52
2021/07/24 01:42:00;;;;;;;;;;;;;;;28.28;38.98;96956.75;5026818;28;1747;-52
2021/07/24 01:44:26;;;;;;;;;;;;;;;28.42;38.72;96958.09;5027295;28;1973;-52
2021/07/24 01:46:51;;;;;;;;;;;;;;;28.50;38.64;96961.63;5028678;28;1276;-52
2021/07/24 01:52:46;;;;;;;;;;;;;;;28.53;38.56;96957.84;5025120;28;1365;-52
2021/07/24 01:54:56;;;;;;;;;;;;;;;28.43;38.73;96955.28;5025815;28;1624;-51
2021/07/24 01:57:21;;;;;;;;;;;;;;;28.47;38.66;96947.84;5028525;28;1213;-51
2021/07/24 01:59:46;;;;;;;;;;;;;;;28.29;39.28;96947.84;5025354;28;1482;-52
2021/07/24 02:02:13;;;;;;;;;;;;;;;28.19;39.29;96949.72;5024935;28;1153;-52
2021/07/24 02:04:40;;;;;;;;;;;;;;;28.44;38.96;96934.88;5024688;28;1906;-51
2021/07/24 02:07:06;;;;;;;;;;;;;;;28.35;38.80;96934.00;5028285;28;1129;-52
2021/07/24 02:09:31;;;;;;;;;;;;;;;28.25;39.13;96935.88;5025533;28;1224;-52
2021/07/24 02:11:56;;;;;;;;;;;;;;;28.41;38.88;96929.91;5026091;28;1599;-51
2021/07/24 02:14:22;;;;;;;;;;;;;;;28.42;38.90;96921.78;5026905;28;1172;-51
2021/07/24 02:16:47;;;;;;;;;;;;;;;28.29;39.22;96926.63;5028736;28;1426;-52
2021/07/24 02:19:12;;;;;;;;;;;;;;;28.26;39.19;96922.44;5010225;28;1589;-52
2021/07/24 02:21:37;;;;;;;;;;;;;;;28.36;39.05;96925.91;5028752;28;1279;-51
2021/07/24 02:24:03;;;;;;;;;;;;;;;28.32;38.84;96923.69;5009117;28;1120;-52
2021/07/24 02:26:28;;;;;;;;;;;;;;;28.35;38.81;96923.38;5026707;28;1916;-52
2021/07/24 02:28:53;;;;;;;;;;;;;;;28.26;39.14;96929.56;5028219;28;1616;-52
2021/07/24 02:31:18;;;;;;;;;;;;;;;28.50;38.69;96927.16;5027316;28;1409;-51
2021/07/24 02:33:43;;;;;;;;;;;;;;;28.35;38.71;96924.22;5025729;28;1185;-52
2021/07/24 02:36:09;;;;;;;;;;;;;;;28.22;39.14;96929.06;5027767;28;1520;-52
2021/07/24 02:38:34;;;;;;;;;;;;;;;28.36;38.77;96933.03;5025846;28;1223;-51
2021/07/24 02:40:59;;;;;;;;;;;;;;;28.33;38.62;96935.97;5026700;28;1955;-52
2021/07/24 02:43:25;;;;;;;;;;;;;;;28.33;39.01;96944.75;5026151;28;1141;-51
2021/07/24 02:45:50;;;;;;;;;;;;;;;28.29;39.14;96948.72;5027971;28;1950;-50
2021/07/24 02:48:16;;;;;;;;;;;;;;;28.31;39.05;96944.09;5026678;28;1841;-50
2021/07/24 02:50:41;;;;;;;;;;;;;;;28.35;38.83;96949.91;5025000;28;1747;-52
2021/07/24 02:53:06;;;;;;;;;;;;;;;28.44;38.39;96956.09;5020841;28;1563;-50
2021/07/24 02:55:31;;;;;;;;;;;;;;;28.25;38.92;96959.72;5021633;28;1497;-51
2021/07/24 02:57:57;;;;;;;;;;;;;;;28.36;38.74;96964.84;5025298;28;1232;-51
2021/07/24 03:00:22;;;;;;;;;;;;;;;28.39;38.49;96969.00;5021846;28;1114;-52
2021/07/24 03:02:47;;;;;;;;;;;;;;;28.30;38.71;96965.47;5021814;28;1209;-52
2021/07/24 03:05:12;;;;;;;;;;;;;;;28.25;39.18;96965.88;5024107;28;1910;-52
2021/07/24 03:07:37;;;;;;;;;;;;;;;28.38;38.83;96965.53;5022401;28;1097;-50
2021/07/24 03:10:03;;;;;;;;;;;;;;;28.37;38.76;96966.50;5023023;28;1598;-51
2021/07/24 03:12:28;;;;;;;;;;;;;;;28.34;38.83;96964.97;5023029;28;1360;-50
2021/07/24 03:14:53;;;;;;;;;;;;;;;28.25;39.04;96970.34;5027157;28;1650;-51
2021/07/24 03:17:19;;;;;;;;;;;;;;;28.19;39.01;96965.63;5022818;28;1272;-51
2021/07/24 03:19:44;;;;;;;;;;;;;;;28.30;39.02;96976.91;5023178;28;1318;-50
2021/07/24 03:22:09;;;;;;;;;;;;;;;28.25;38.74;96975.63;5023902;28;1623;-51
2021/07/24 03:24:34;;;;;;;;;;;;;;;28.17;39.28;96983.53;5023358;28;1902;-52
2021/07/24 03:26:59;;;;;;;;;;;;;;;28.31;38.92;96990.97;5025014;28;1782;-52
2021/07/24 03:29:25;;;;;;;;;;;;;;;28.32;39.10;96990.00;5022180;28;1214;-50
2021/07/24 03:31:50;;;;;;;;;;;;;;;28.28;38.80;96997.41;5024059;28;1323;-52
2021/07/24 03:34:15;;;;;;;;;;;;;;;28.31;38.78;96996.28;5021898;28;1556;-51
2021/07/24 03:36:40;;;;;;;;;;;;;;;28.44;38.41;96998.53;5022019;28;1371;-52
2021/07/24 03:39:05;;;;;;;;;;;;;;;28.28;38.75;96996.53;5022941;28;1390;-51
2021/07/24 03:41:34;;;;;;;;;;;;;;;28.25;39.01;96994.19;5022123;28;1626;-50
2021/07/24 03:43:59;;;;;;;;;;;;;;;28.32;39.08;96993.47;5022404;28;1817;-52
2021/07/24 03:46:26;;;;;;;;;;;;;;;28.37;38.69;96995.69;5021983;28;1973;-52
2021/07/24 03:48:52;;;;;;;;;;;;;;;28.42;38.66;96997.88;5020809;28;1623;-52
2021/07/24 03:51:17;;;;;;;;;;;;;;;28.28;38.87;96994.75;5024519;28;1188;-52
2021/07/24 03:53:42;;;;;;;;;;;;;;;28.26;38.91;96990.56;5021850;28;1181;-52
2021/07/24 03:56:15;;;;;;;;;;;;;;;28.43;38.59;96989.75;5023388;28;1596;-53
2021/07/24 03:58:40;;;;;;;;;;;;;;;28.29;38.76;97000.88;5020870;28;1686;-51
2021/07/24 04:01:05;;;;;;;;;;;;;;;28.24;38.89;96992.53;5023246;28;1114;-52
2021/07/24 04:03:31;;;;;;;;;;;;;;;28.30;38.93;96999.94;5021773;28;1348;-52
2021/07/24 04:05:56;;;;;;;;;;;;;;;28.24;39.06;97000.50;5020816;28;1902;-52
2021/07/24 04:08:21;;;;;;;;;;;;;;;28.29;38.77;97003.53;5020266;28;1604;-52
2021/07/24 04:10:47;;;;;;;;;;;;;;;28.38;38.67;97000.00;5023744;28;1588;-52
2021/07/24 04:13:12;;;;;;;;;;;;;;;28.42;38.51;97003.16;5022297;28;1685;-53
2021/07/24 04:15:38;;;;;;;;;;;;;;;28.37;38.70;96998.34;5021468;28;1398;-51
2021/07/24 04:18:06;;;;;;;;;;;;;;;28.33;38.59;97004.91;5022107;28;1472;-53
2021/07/24 04:20:31;;;;;;;;;;;;;;;28.31;38.72;97002.41;5021411;28;1225;-52
2021/07/24 04:22:56;;;;;;;;;;;;;;;28.20;38.91;97001.75;5021007;28;1649;-52
2021/07/24 04:25:22;;;;;;;;;;;;;;;28.24;38.83;97003.16;5023370;28;1963;-52
2021/07/24 04:27:48;;;;;;;;;;;;;;;28.33;38.65;96992.50;5020759;28;1413;-52
2021/07/24 04:30:13;;;;;;;;;;;;;;;28.36;38.61;96996.69;5020977;28;1766;-52
2021/07/24 04:32:38;;;;;;;;;;;;;;;28.28;38.47;96988.59;5020067;28;1544;-53
2021/07/24 04:35:03;;;;;;;;;;;;;;;28.39;38.82;96992.88;5019612;28;1383;-51
2021/07/24 04:37:29;;;;;;;;;;;;;;;28.43;38.52;96992.41;5020960;28;1482;-52
2021/07/24 04:39:54;;;;;;;;;;;;;;;28.29;38.64;96987.63;5023420;28;1540;-50
2021/07/24 04:42:19;;;;;;;;;;;;;;;28.24;39.02;96989.88;5020958;28;1133;-52
2021/07/24 04:44:45;;;;;;;;;;;;;;;28.21;38.90;96980.44;5017881;28;1910;-52
2021/07/24 04:47:10;;;;;;;;;;;;;;;28.32;38.64;96980.22;5019938;28;1320;-52
2021/07/24 04:49:35;;;;;;;;;;;;;;;28.24;38.96;96976.63;5021440;28;1548;-50
2021/07/24 04:52:00;;;;;;;;;;;;;;;28.34;38.67;96977.41;5004082;28;1649;-52
2021/07/24 04:54:25;;;;;;;;;;;;;;;28.35;38.57;96977.25;5024296;28;1657;-53
2021/07/24 04:56:51;;;;;;;;;;;;;;;28.33;38.58;96973.09;5027011;28;2151;-51
2021/07/24 04:59:16;;;;;;;;;;;;;;;28.25;38.87;96971.16;5025881;28;1271;-51
2021/07/24 05:01:41;;;;;;;;;;;;;;;28.36;38.80;96964.84;5023859;28;1304;-51
2021/07/24 05:04:06;;;;;;;;;;;;;;;28.19;38.97;96965.63;5021742;28;1592;-52
2021/07/24 05:06:31;;;;;;;;;;;;;;;28.29;38.93;96954.03;5020369;28;1906;-50
2021/07/24 05:08:57;;;;;;;;;;;;;;;28.28;38.89;96954.13;5019095;28;1237;-52
2021/07/24 05:11:22;;;;;;;;;;;;;;;28.15;39.16;96953.69;5022461;28;1660;-49
2021/07/24 05:13:47;;;;;;;;;;;;;;;28.35;38.55;96955.19;5022052;28;1290;-51
2021/07/24 05:16:13;;;;;;;;;;;;;;;28.31;38.47;96960.00;5021141;28;1280;-52
2021/07/24 05:18:38;;;;;;;;;;;;;;;28.22;38.87;96958.22;5020843;28;1379;-52
2021/07/24 05:21:03;;;;;;;;;;;;;;;28.36;38.52;96959.56;5020725;28;1630;-53
2021/07/24 05:23:29;;;;;;;;;;;;;;;28.22;39.05;96947.63;5020195;28;1342;-52
2021/07/24 05:25:54;;;;;;;;;;;;;;;28.20;38.69;96946.09;5020791;28;1902;-51
2021/07/24 05:28:19;;;;;;;;;;;;;;;28.30;38.56;96934.47;5019854;28;1466;-52
2021/07/24 05:30:45;;;;;;;;;;;;;;;28.27;38.92;96926.75;5020744;28;1225;-50
2021/07/24 05:33:10;;;;;;;;;;;;;;;28.30;38.73;96917.72;5019167;28;1324;-52
2021/07/24 05:35:35;;;;;;;;;;;;;;;28.35;38.77;96918.91;5019703;28;1580;-51
2021/07/24 05:38:00;;;;;;;;;;;;;;;28.32;38.51;96913.09;5019215;28;1410;-52
2021/07/24 05:40:26;;;;;;;;;;;;;;;28.26;38.59;96919.81;5026317;28;1556;-50
2021/07/24 05:42:51;;;;;;;;;;;;;;;28.17;39.03;96915.41;5020121;28;1427;-52
2021/07/24 05:45:16;;;;;;;;;;;;;;;28.30;38.73;96920.38;5021731;28;1934;-52
2021/07/24 05:47:41;;;;;;;;;;;;;;;28.22;38.80;96920.28;5019824;28;1410;-51
2021/07/24 05:50:07;;;;;;;;;;;;;;;28.35;38.60;96912.78;5023606;28;1623;-53
2021/07/24 05:52:32;;;;;;;;;;;;;;;28.35;38.70;96912.78;5019573;28;1154;-52
2021/07/24 05:54:57;;;;;;;;;;;;;;;28.13;39.11;96911.44;5019513;28;1544;-52
2021/07/24 05:57:22;;;;;;;;;;;;;;;28.22;38.94;96904.38;5021187;28;1339;-52
2021/07/24 05:59:48;;;;;;;;;;;;;;;28.35;38.62;96907.47;5018687;28;1034;-53
2021/07/24 06:02:13;;;;;;;;;;;;;;;28.42;38.54;96916.47;5018744;28;1205;-51
2021/07/24 06:04:42;;;;;;;;;;;;;;;28.30;38.64;96915.91;5022212;28;1906;-50
2021/07/24 06:07:08;;;;;;;;;;;;;;;28.36;38.47;96919.78;5021866;28;1800;-53
2021/07/24 06:09:33;;;;;;;;;;;;;;;28.32;38.63;96916.56;5019518;28;1525;-51
2021/07/24 06:11:58;;;;;;;;;;;;;;;28.28;38.68;96917.00;5021699;28;1818;-51
2021/07/24 06:14:23;;;;;;;;;;;;;;;28.17;39.05;96904.81;5019752;28;1419;-52
2021/07/24 06:16:49;;;;;;;;;;;;;;;28.34;38.61;96908.47;5023125;28;1370;-52
2021/07/24 06:19:14;;;;;;;;;;;;;;;28.36;38.69;96906.50;5018363;28;1623;-52
2021/07/24 06:21:40;;;;;;;;;;;;;;;28.25;39.03;96912.00;5021358;28;1378;-53
2021/07/24 06:24:05;;;;;;;;;;;;;;;28.29;38.64;96903.63;5018594;28;1169;-52
2021/07/24 06:26:30;;;;;;;;;;;;;;;28.32;38.73;96910.44;5020616;28;1981;-51
2021/07/24 06:28:55;;;;;;;;;;;;;;;28.26;38.92;96908.38;5022817;28;1572;-52
2021/07/24 06:31:20;;;;;;;;;;;;;;;28.27;38.83;96905.56;5021451;28;1181;-50
2021/07/24 06:33:46;;;;;;;;;;;;;;;28.39;38.73;96908.00;5022904;28;1323;-52
2021/07/24 06:36:11;;;;;;;;;;;;;;;28.22;39.15;96901.72;5023187;28;1296;-52
2021/07/24 06:38:36;;;;;;;;;;;;;;;28.08;39.28;96905.75;5023099;28;1592;-53
2021/07/24 06:41:03;;;;;;;;;;;;;;;28.32;38.84;96905.13;5023710;28;1568;-52
2021/07/24 06:43:28;;;;;;;;;;;;;;;28.22;39.18;96920.28;5022325;28;1425;-52
2021/07/24 06:45:53;;;;;;;;;;;;;;;28.28;38.79;96920.50;5026193;28;1977;-52
2021/07/24 06:48:18;;;;;;;;;;;;;;;28.24;39.06;96916.47;5024594;28;1493;-52
2021/07/24 06:50:44;;;;;;;;;;;;;;;28.36;38.77;96919.78;5023555;28;1240;-52
2021/07/24 06:53:09;;;;;;;;;;;;;;;28.32;38.75;96913.94;5024654;28;1228;-52
2021/07/24 06:55:34;;;;;;;;;;;;;;;28.38;38.50;96925.75;5023269;28;1571;-50
2021/07/24 06:58:02;;;;;;;;;;;;;;;28.36;38.62;96931.22;5027055;28;1426;-50
2021/07/24 07:00:28;;;;;;;;;;;;;;;28.30;38.92;96933.63;5020642;28;1034;-52
2021/07/24 07:02:55;;;;;;;;;;;;;;;28.20;39.04;96933.69;5022313;28;1373;-50
2021/07/24 07:05:20;;;;;;;;;;;;;;;28.26;39.03;96938.34;5023980;28;1906;-52
2021/07/24 07:07:45;;;;;;;;;;;;;;;28.25;38.69;96938.53;5021309;28;1370;-50
2021/07/24 07:10:11;;;;;;;;;;;;;;;28.39;38.44;96940.66;5023355;28;1647;-52
2021/07/24 07:12:36;;;;;;;;;;;;;;;28.27;38.58;96947.97;5023228;28;1342;-53
2021/07/24 07:15:02;;;;;;;;;;;;;;;28.35;38.79;96945.44;5022910;28;1288;-53
2021/07/24 07:17:27;;;;;;;;;;;;;;;28.31;38.66;96951.22;5022308;28;1354;-50
2021/07/24 07:19:52;;;;;;;;;;;;;;;28.33;38.61;96947.41;5020906;28;1552;-52
2021/07/24 07:22:17;;;;;;;;;;;;;;;28.30;38.79;96953.03;5022043;28;1232;-52
2021/07/24 07:24:43;;;;;;;;;;;;;;;28.21;39.06;96964.53;5024274;28;1969;-53
2021/07/24 07:27:08;;;;;;;;;;;;;;;28.39;38.81;96969.84;5022251;28;1486;-53
2021/07/24 07:29:33;;;;;;;;;;;;;;;28.38;38.51;96977.97;5027447;28;1463;-53
2021/07/24 07:31:58;;;;;;;;;;;;;;;28.38;38.63;96986.75;5019768;28;1260;-53
2021/07/24 07:34:23;;;;;;;;;;;;;;;28.27;39.05;96984.28;5022483;28;1574;-53
2021/07/24 07:36:49;;;;;;;;;;;;;;;28.32;38.71;96976.75;5022371;28;1382;-52
2021/07/24 07:39:14;;;;;;;;;;;;;;;28.36;38.62;96994.03;5020737;28;1193;-52
2021/07/24 07:41:39;;;;;;;;;;;;;;;28.28;38.78;97002.72;5022954;28;1675;-53
2021/07/24 07:44:05;;;;;;;;;;;;;;;28.37;38.79;97022.22;5023209;28;1254;-52
2021/07/24 07:46:30;;;;;;;;;;;;;;;28.32;38.79;97030.59;5022423;28;1902;-51
2021/07/24 07:48:55;;;;;;;;;;;;;;;28.38;38.72;97007.97;5020681;28;1508;-53
2021/07/24 07:51:20;;;;;;;;;;;;;;;28.33;38.91;96989.00;5024365;28;1208;-52
2021/07/24 07:53:46;;;;;;;;;;;;;;;28.30;38.63;96982.19;5023674;28;1491;-53
2021/07/24 07:56:11;;;;;;;;;;;;;;;28.49;38.33;96986.50;5022104;28;1749;-52
2021/07/24 07:58:36;;;;;;;;;;;;;;;28.31;38.71;96975.91;5023730;28;1681;-52
2021/07/24 08:01:01;;;;;;;;;;;;;;;28.30;38.78;96984.03;5024367;28;1483;-52
2021/07/24 08:03:27;;;;;;;;;;;;;;;28.30;38.83;96982.19;5021261;28;1102;-53
2021/07/24 08:05:52;;;;;;;;;;;;;;;28.28;38.74;96977.97;5022547;28;1898;-51
2021/07/24 08:08:17;;;;;;;;;;;;;;;28.23;38.86;96978.44;5006325;28;1180;-50
2021/07/24 08:10:43;;;;;;;;;;;;;;;28.24;38.92;96972.16;5021421;28;1521;-52
2021/07/24 08:13:11;;;;;;;;;;;;;;;28.48;38.48;96976.88;5022081;28;1291;-52
2021/07/24 08:15:37;;;;;;;;;;;;;;;28.34;38.84;96983.53;5024831;28;1372;-52
2021/07/24 08:18:02;;;;;;;;;;;;;;;28.46;38.40;96991.28;5021521;28;1177;-52
2021/07/24 08:20:27;;;;;;;;;;;;;;;28.37;38.63;97001.00;5023044;28;1592;-50
2021/07/24 08:22:52;;;;;;;;;;;;;;;28.42;38.67;96998.69;5021361;28;1112;-52
2021/07/24 08:25:17;;;;;;;;;;;;;;;28.31;38.98;96996.28;5021641;28;1918;-51
2021/07/24 08:27:43;;;;;;;;;;;;;;;28.41;38.55;96991.72;5020416;28;1089;-51
2021/07/24 08:30:08;;;;;;;;;;;;;;;28.21;39.16;96995.50;5023348;28;1492;-52
2021/07/24 08:32:33;;;;;;;;;;;;;;;28.37;38.49;96990.38;5020103;28;1220;-52
2021/07/24 08:34:59;;;;;;;;;;;;;;;28.28;38.73;96977.97;5022668;28;1611;-52
2021/07/24 08:37:24;;;;;;;;;;;;;;;28.46;38.42;96972.72;5021228;28;1165;-50
2021/07/24 08:39:49;;;;;;;;;;;;;;;28.28;38.90;96964.72;5021359;28;2035;-52
2021/07/24 08:42:33;;;;;;;;;;;;;;;28.48;38.46;96958.31;5021704;28;1225;-52
2021/07/24 08:44:58;;;;;;;;;;;;;;;28.34;38.84;96953.53;5021935;28;1967;-51
2021/07/24 08:47:23;;;;;;;;;;;;;;;28.37;38.60;96950.59;5021613;28;1067;-50
2021/07/24 08:49:49;;;;;;;;;;;;;;;28.40;38.54;96952.09;5019791;28;1615;-50
2021/07/24 08:52:15;;;;;;;;;;;;;;;28.27;38.81;96955.09;5020931;28;1244;-52
2021/07/24 08:54:41;;;;;;;;;;;;;;;28.38;38.53;96959.38;5022678;28;1729;-52
2021/07/24 08:57:06;;;;;;;;;;;;;;;28.49;38.63;96961.78;5022248;28;1102;-52
2021/07/24 08:59:32;;;;;;;;;;;;;;;28.35;38.57;96950.72;5021410;28;1532;-50
2021/07/24 09:01:57;;;;;;;;;;;;;;;28.33;38.68;96965.13;5019146;28;1074;-52
2021/07/24 09:04:22;;;;;;;;;;;;;;;28.48;38.30;96968.09;5023141;28;1848;-50
2021/07/24 09:06:49;;;;;;;;;;;;;;;28.28;38.75;96962.94;5003112;28;1906;-51
2021/07/24 09:09:14;;;;;;;;;;;;;;;28.33;38.69;96960.66;5019051;28;1192;-52
2021/07/24 09:11:39;;;;;;;;;;;;;;;28.31;38.53;96952.03;5020077;28;1548;-52
2021/07/24 09:14:05;;;;;;;;;;;;;;;28.23;38.92;96961.72;5020219;28;1378;-52
2021/07/24 09:16:30;;;;;;;;;;;;;;;28.10;39.24;96965.56;5019160;28;1186;-51
2021/07/24 09:18:57;;;;;;;;;;;;;;;28.25;39.10;96965.03;5019175;28;1547;-53
2021/07/24 09:21:22;;;;;;;;;;;;;;;28.25;38.74;96968.53;5020681;28;1177;-53
2021/07/24 09:23:48;;;;;;;;;;;;;;;28.34;38.70;96964.16;5019205;28;1441;-51
2021/07/24 09:28:40;;;;;;;;;;;;;;;28.33;38.83;96962.47;5005031;28;1499;-53
2021/07/24 09:31:26;;;;;;;;;;;;;;;28.48;38.43;96968.09;5002610;28;1185;-53
2021/07/24 09:33:51;;;;;;;;;;;;;;;28.35;38.74;96958.69;5002049;28;2036;-53
2021/07/24 09:36:35;;;;;;;;;;;;;;;28.25;38.86;96968.53;5010282;28;1264;-52
2021/07/24 09:39:13;;;;;;;;;;;;;;;28.40;38.79;96958.25;5019296;28;1082;-52
2021/07/24 09:41:39;;;;;;;;;;;;;;;28.46;38.54;96956.81;5016923;28;1560;-50
2021/07/24 09:44:04;;;;;;;;;;;;;;;28.35;38.70;96955.19;5018278;28;1046;-50
2021/07/24 09:46:29;;;;;;;;;;;;;;;28.34;38.62;96950.88;5019462;28;1911;-51
2021/07/24 09:48:54;;;;;;;;;;;;;;;28.39;38.52;96956.56;5018154;28;1701;-52
2021/07/24 09:51:32;;;;;;;;;;;;;;;28.29;38.69;96954.03;5016199;28;1546;-52
2021/07/24 09:53:57;;;;;;;;;;;;;;;28.41;38.61;96951.94;5017254;28;1172;-53
2021/07/24 09:56:36;;;;;;;;;;;;;;;28.43;38.40;96947.31;5018443;28;1631;-50
2021/07/24 09:59:14;;;;;;;;;;;;;;;28.45;38.54;96945.38;5014207;28;1750;-51
2021/07/24 10:01:39;;;;;;;;;;;;;;;28.50;38.30;96947.53;5018965;28;1142;-52
2021/07/24 10:04:04;;;;;;;;;;;;;;;28.30;38.72;96938.94;5036636;28;1676;-53
2021/07/24 10:06:29;;;;;;;;;;;;;;;28.33;38.48;96931.50;5022902;28;1907;-50
2021/07/24 10:08:56;;;;;;;;;;;;;;;28.31;38.90;96922.03;5023853;28;1137;-50
2021/07/24 10:11:21;;;;;;;;;;;;;;;28.35;38.63;96923.38;5018127;28;1630;-51
2021/07/24 10:13:46;;;;;;;;;;;;;;;28.33;38.56;96918.22;5022314;28;1224;-52
2021/07/24 10:16:11;;;;;;;;;;;;;;;28.49;38.64;96932.63;5020977;28;1362;-52
2021/07/24 10:18:37;;;;;;;;;;;;;;;28.36;38.54;96919.78;5023183;28;1607;-52
2021/07/24 10:21:03;;;;;;;;;;;;;;;28.45;38.40;96913.53;5021103;28;1292;-52
2021/07/24 10:23:29;;;;;;;;;;;;;;;28.32;38.90;96910.44;5022980;28;1145;-52
2021/07/24 10:26:02;;;;;;;;;;;;;;;28.42;38.54;96902.38;5019784;28;1902;-51
2021/07/24 10:28:50;;;;;;;;;;;;;;;28.45;38.44;96897.63;5023034;28;1306;-52
2021/07/24 10:31:15;;;;;;;;;;;;;;;28.50;38.39;96899.78;5017812;28;1473;-51
2021/07/24 10:33:41;;;;;;;;;;;;;;;28.53;38.28;96891.53;5020015;28;1410;-51
2021/07/24 10:36:13;;;;;;;;;;;;;;;28.36;38.69;96887.94;5020327;28;1633;-52
2021/07/24 10:38:38;;;;;;;;;;;;;;;28.44;38.47;96895.09;5020646;28;1090;-50
2021/07/24 10:41:22;;;;;;;;;;;;;;;28.35;38.44;96881.78;5018910;28;1579;-51
2021/07/24 10:43:59;;;;;;;;;;;;;;;28.38;38.53;96878.00;5018795;28;1633;-52
2021/07/24 10:46:45;;;;;;;;;;;;;;;28.43;38.47;96875.69;5020359;28;1906;-54
2021/07/24 10:49:22;;;;;;;;;;;;;;;28.44;38.40;96871.22;5022094;28;1185;-51
2021/07/24 10:52:06;;;;;;;;;;;;;;;28.35;38.39;96863.22;5019287;28;1560;-52
2021/07/24 10:54:50;;;;;;;;;;;;;;;28.34;38.51;96852.78;5021274;28;1475;-52
2021/07/24 10:57:35;;;;;;;;;;;;;;;28.23;38.95;96850.34;5021098;28;1336;-51
2021/07/24 11:00:16;;;;;;;;;;;;;;;28.31;38.56;96847.78;5022010;28;1828;-52
2021/07/24 11:02:44;;;;;;;;;;;;;;;28.46;38.50;96845.41;5019033;28;1136;-53
2021/07/24 11:05:22;;;;;;;;;;;;;;;28.28;38.58;96840.97;5018233;28;1898;-52
2021/07/24 11:07:47;;;;;;;;;;;;;;;28.30;38.78;96840.81;5022159;28;1158;-50
2021/07/24 11:10:12;;;;;;;;;;;;;;;28.35;38.54;96842.00;5019925;28;1576;-52
2021/07/24 11:12:38;;;;;;;;;;;;;;;28.31;38.95;96848.63;5021725;28;1401;-52
2021/07/24 11:15:04;;;;;;;;;;;;;;;28.39;38.51;96852.31;5020738;28;1208;-52
2021/07/24 11:17:29;;;;;;;;;;;;;;;28.42;38.68;96844.03;5021829;28;1320;-52
2021/07/24 11:19:54;;;;;;;;;;;;;;;28.41;38.32;96851.16;5019892;28;1619;-52
2021/07/24 11:22:20;;;;;;;;;;;;;;;28.31;38.84;96847.78;5023101;28;1110;-53
2021/07/24 11:24:51;;;;;;;;;;;;;;;28.50;38.39;96844.91;5019109;28;1902;-52
2021/07/24 11:27:28;;;;;;;;;;;;;;;28.46;38.19;96848.06;5021599;28;1469;-52
2021/07/24 11:29:54;;;;;;;;;;;;;;;28.41;38.78;96850.34;5017360;28;1836;-52
2021/07/24 11:32:25;;;;;;;;;;;;;;;28.45;38.39;96847.22;5022755;28;1161;-52
2021/07/24 11:34:57;;;;;;;;;;;;;;;28.33;38.59;96841.34;5020774;28;1205;-51
2021/07/24 11:37:34;;;;;;;;;;;;;;;28.43;38.68;96843.88;5020016;28;1469;-52
2021/07/24 11:40:00;;;;;;;;;;;;;;;28.45;38.66;96852.53;5018999;28;1608;-52
2021/07/24 11:42:25;;;;;;;;;;;;;;;28.31;38.59;96840.66;5022317;28;1511;-52
2021/07/24 11:44:50;;;;;;;;;;;;;;;28.36;38.61;96842.88;5016967;28;1906;-52
2021/07/24 11:47:15;;;;;;;;;;;;;;;28.28;38.58;96851.56;5020777;28;1319;-52
2021/07/24 11:49:43;;;;;;;;;;;;;;;28.39;38.57;96841.72;5021273;28;1118;-52
2021/07/24 11:52:09;;;;;;;;;;;;;;;28.48;38.41;96844.25;5018103;28;1651;-51
2021/07/24 11:54:34;;;;;;;;;;;;;;;28.44;38.31;96836.75;5020918;28;1133;-52
2021/07/24 11:57:00;;;;;;;;;;;;;;;28.42;38.68;96833.44;5018510;28;1830;-51
2021/07/24 11:59:28;;;;;;;;;;;;;;;28.39;38.36;96825.78;5021589;28;1212;-52
2021/07/24 12:01:54;;;;;;;;;;;;;;;28.42;38.43;96822.81;5019379;28;1350;-53
2021/07/24 12:04:19;;;;;;;;;;;;;;;28.34;38.65;96823.59;5019563;28;1645;-52
2021/07/24 12:06:51;;;;;;;;;;;;;;;28.32;38.69;96823.75;5020155;28;1906;-51
2021/07/24 12:09:17;;;;;;;;;;;;;;;28.46;38.50;96838.28;5017047;28;1343;-52
2021/07/24 12:11:47;;;;;;;;;;;;;;;28.34;38.75;96850.13;5020749;28;1638;-52
2021/07/24 12:14:12;;;;;;;;;;;;;;;28.35;38.63;96854.44;5016527;28;1446;-50
2021/07/24 12:16:39;;;;;;;;;;;;;;;28.50;38.15;96854.69;5019948;28;1333;-52
2021/07/24 12:19:17;;;;;;;;;;;;;;;28.38;38.54;96848.00;5015787;28;1691;-52
2021/07/24 12:21:43;;;;;;;;;;;;;;;28.27;39.01;96849.88;5020194;28;1232;-51
2021/07/24 12:24:08;;;;;;;;;;;;;;;28.48;38.20;96843.41;5019957;28;1359;-52
2021/07/24 12:26:34;;;;;;;;;;;;;;;28.35;38.51;96843.81;5018034;28;1967;-50
2021/07/24 12:29:09;;;;;;;;;;;;;;;28.35;38.74;96838.53;5014902;28;1655;-50
2021/07/24 12:31:40;;;;;;;;;;;;;;;28.41;38.72;96835.25;5022033;28;1228;-52
2021/07/24 12:34:34;;;;;;;;;;;;;;;28.34;38.78;96836.84;5019485;28;1150;-52
2021/07/24 12:37:01;;;;;;;;;;;;;;;28.49;38.42;96823.88;5008619;28;1548;-52
2021/07/24 12:39:33;;;;;;;;;;;;;;;28.38;38.68;96827.63;5019577;28;1624;-52
2021/07/24 12:42:02;;;;;;;;;;;;;;;28.43;38.26;96835.91;5017000;28;1600;-52
2021/07/24 12:44:27;;;;;;;;;;;;;;;28.46;38.60;96834.78;5021125;28;1416;-51
2021/07/24 12:47:08;;;;;;;;;;;;;;;28.39;38.52;96823.97;5018880;28;1898;-52
2021/07/24 12:49:33;;;;;;;;;;;;;;;28.30;38.64;96827.56;5018639;28;1612;-52
2021/07/24 12:51:58;;;;;;;;;;;;;;;28.32;38.72;96823.75;5020745;28;1149;-51
2021/07/24 12:54:24;;;;;;;;;;;;;;;28.36;38.61;96814.53;5015600;28;1426;-52
2021/07/24 12:56:50;;;;;;;;;;;;;;;28.38;38.48;96821.50;5016727;28;1577;-52
2021/07/24 12:59:15;;;;;;;;;;;;;;;28.46;38.37;96819.72;5018475;28;1366;-50